createdAt,value
2022-12-31T00:01:48.260Z,64.00
2022-12-31T00:06:51.063Z,64.00
2022-12-31T00:11:55.143Z,64.20
2022-12-31T00:16:58.020Z,64.10
2022-12-31T00:22:00.751Z,63.80
2022-12-31T00:27:04.776Z,63.90
2022-12-31T00:32:07.441Z,64.20
2022-12-31T00:37:10.092Z,63.80
2022-12-31T00:42:14.103Z,63.90
2022-12-31T00:47:16.849Z,63.90
2022-12-31T00:52:19.700Z,64.00
2022-12-31T00:57:23.708Z,63.90
2022-12-31T01:02:26.661Z,63.90
2022-12-31T01:07:29.452Z,63.80
2022-12-31T01:12:33.436Z,64.00
2022-12-31T01:17:36.091Z,63.80
2022-12-31T01:22:38.747Z,63.80
2022-12-31T01:27:42.720Z,63.90
2022-12-31T01:32:45.481Z,63.80
2022-12-31T01:37:48.136Z,64.10
2022-12-31T01:42:56.234Z,64.10
2022-12-31T01:48:00.636Z,64.00
2022-12-31T01:53:04.395Z,64.20
2022-12-31T01:58:10.197Z,64.00
2022-12-31T02:03:13.398Z,63.90
2022-12-31T02:08:16.940Z,64.10
2022-12-31T02:13:21.039Z,64.00
2022-12-31T02:18:28.175Z,63.90
2022-12-31T02:23:56.310Z,64.00
2022-12-31T02:29:16.826Z,64.00
2022-12-31T02:34:26.378Z,63.80
2022-12-31T02:39:30.002Z,64.10
2022-12-31T02:44:34.117Z,63.90
2022-12-31T02:49:44.061Z,64.20
2022-12-31T02:54:49.979Z,64.10
2022-12-31T03:00:15.930Z,64.10
2022-12-31T03:05:22.168Z,64.10
2022-12-31T03:10:24.804Z,64.10
2022-12-31T03:15:28.755Z,64.10
2022-12-31T03:20:51.696Z,64.00
2022-12-31T03:25:55.704Z,64.00
2022-12-31T03:30:59.714Z,64.10
2022-12-31T03:36:05.782Z,64.20
2022-12-31T03:41:10.476Z,64.30
2022-12-31T03:46:13.217Z,64.10
2022-12-31T03:51:17.726Z,64.20
2022-12-31T03:56:20.435Z,64.10
2022-12-31T04:01:24.331Z,64.10
2022-12-31T04:06:28.555Z,64.10
2022-12-31T04:11:31.249Z,64.00
2022-12-31T04:16:34.079Z,64.40
2022-12-31T04:21:38.108Z,64.20
2022-12-31T04:26:40.905Z,63.80
2022-12-31T04:31:43.730Z,64.00
2022-12-31T04:36:47.722Z,63.90
2022-12-31T04:41:50.362Z,64.00
2022-12-31T04:46:53.111Z,64.10
2022-12-31T04:51:57.085Z,64.30
2022-12-31T04:56:59.747Z,63.90
2022-12-31T05:02:02.587Z,64.00
2022-12-31T05:07:06.798Z,64.00
2022-12-31T05:12:09.449Z,64.20
2022-12-31T05:17:12.120Z,64.00
2022-12-31T05:22:31.237Z,64.00
2022-12-31T05:27:34.368Z,64.30
2022-12-31T05:32:36.989Z,64.20
2022-12-31T05:37:41.068Z,64.20
2022-12-31T05:42:43.758Z,64.20
2022-12-31T05:47:46.488Z,64.30
2022-12-31T05:52:50.473Z,64.30
2022-12-31T05:57:53.088Z,64.20
2022-12-31T06:02:55.834Z,64.30
2022-12-31T06:07:59.959Z,64.10
2022-12-31T06:13:02.685Z,64.20
2022-12-31T06:18:05.459Z,64.10
2022-12-31T06:23:09.412Z,63.90
2022-12-31T06:28:19.516Z,64.20
2022-12-31T06:33:22.948Z,64.10
2022-12-31T06:38:27.407Z,64.40
2022-12-31T06:43:30.108Z,64.20
2022-12-31T06:48:32.945Z,64.30
2022-12-31T06:53:37.056Z,64.00
2022-12-31T06:58:40.436Z,64.10
2022-12-31T07:03:46.821Z,64.10
2022-12-31T07:08:54.731Z,64.30
2022-12-31T07:14:11.825Z,64.20
2022-12-31T07:19:20.000Z,64.20
2022-12-31T07:24:24.625Z,64.30
2022-12-31T07:29:30.736Z,64.30
2022-12-31T07:34:38.689Z,64.10
2022-12-31T07:39:46.595Z,64.00
2022-12-31T07:44:54.656Z,64.10
2022-12-31T07:49:57.843Z,64.10
2022-12-31T07:55:02.135Z,64.10
2022-12-31T08:00:07.659Z,64.30
2022-12-31T08:05:16.302Z,64.20
2022-12-31T08:10:22.859Z,64.10
2022-12-31T08:15:30.292Z,64.20
2022-12-31T08:20:34.921Z,64.10
2022-12-31T08:25:44.835Z,63.90
2022-12-31T08:30:55.579Z,63.80
2022-12-31T08:36:05.737Z,63.80
2022-12-31T08:41:14.888Z,64.30
2022-12-31T08:46:20.440Z,64.20
2022-12-31T08:51:24.325Z,64.40
2022-12-31T08:56:31.090Z,64.20
2022-12-31T09:01:38.875Z,64.00
2022-12-31T09:06:45.000Z,64.10
2022-12-31T09:11:55.268Z,63.80
2022-12-31T09:17:01.151Z,64.10
2022-12-31T09:22:04.167Z,63.80
2022-12-31T09:27:16.039Z,64.20
2022-12-31T09:32:22.231Z,64.10
2022-12-31T09:37:32.557Z,64.30
2022-12-31T09:42:51.144Z,64.30
2022-12-31T09:48:08.657Z,64.20
2022-12-31T09:53:23.019Z,64.30
2022-12-31T09:58:32.543Z,64.30
2022-12-31T10:03:44.679Z,64.30
2022-12-31T10:08:56.643Z,64.20
2022-12-31T10:14:07.475Z,64.50
2022-12-31T10:19:28.982Z,64.20
2022-12-31T10:24:42.673Z,64.30
2022-12-31T10:29:48.485Z,64.40
2022-12-31T10:34:55.445Z,64.50
2022-12-31T10:40:03.141Z,64.50
2022-12-31T10:45:28.262Z,64.30
2022-12-31T10:50:50.229Z,64.40
2022-12-31T10:56:10.564Z,64.40
2022-12-31T11:01:18.622Z,64.40
2022-12-31T11:06:41.164Z,64.50
2022-12-31T11:11:46.039Z,64.50
2022-12-31T11:16:57.715Z,64.60
2022-12-31T11:22:10.135Z,64.40
2022-12-31T11:27:20.231Z,64.60
2022-12-31T11:32:27.971Z,64.60
2022-12-31T11:37:33.523Z,64.60
2022-12-31T11:42:41.678Z,64.80
2022-12-31T11:48:29.524Z,64.40
2022-12-31T11:53:25.983Z,64.50
2022-12-31T11:58:30.046Z,64.40
2022-12-31T12:03:38.516Z,64.50
2022-12-31T12:08:41.541Z,64.60
2022-12-31T12:13:44.234Z,64.20
2022-12-31T12:18:48.907Z,64.60
2022-12-31T12:23:55.720Z,64.40
2022-12-31T12:29:00.539Z,64.60
2022-12-31T12:34:04.628Z,64.40
2022-12-31T12:39:07.688Z,64.30
2022-12-31T12:44:16.658Z,64.30
2022-12-31T12:49:22.469Z,64.30
2022-12-31T12:54:35.967Z,64.20
2022-12-31T12:59:59.310Z,64.20
2022-12-31T13:05:11.527Z,64.20
2022-12-31T13:10:22.449Z,64.00
2022-12-31T13:15:28.730Z,64.30
2022-12-31T13:20:40.155Z,64.20
2022-12-31T13:25:49.828Z,64.20
2022-12-31T13:30:54.732Z,64.20
2022-12-31T13:35:59.793Z,64.40
2022-12-31T13:41:04.959Z,64.30
2022-12-31T13:46:11.328Z,64.40
2022-12-31T13:51:16.912Z,64.40
2022-12-31T13:56:23.888Z,64.30
2022-12-31T14:01:33.663Z,64.40
2022-12-31T14:06:42.192Z,64.60
2022-12-31T14:11:50.151Z,64.70
2022-12-31T14:16:56.304Z,64.60
2022-12-31T14:22:03.471Z,64.60
2022-12-31T14:27:08.655Z,64.60
2022-12-31T14:32:18.567Z,64.80
2022-12-31T14:37:28.200Z,64.70
2022-12-31T14:42:35.695Z,64.70
2022-12-31T14:47:45.040Z,64.50
2022-12-31T14:52:53.170Z,64.70
2022-12-31T15:03:24.406Z,64.50
2022-12-31T15:08:38.163Z,64.80
2022-12-31T15:13:47.483Z,64.70
2022-12-31T15:18:57.871Z,64.60
2022-12-31T15:24:02.034Z,64.70
2022-12-31T15:29:06.023Z,64.60
2022-12-31T15:34:23.622Z,64.50
2022-12-31T15:39:37.182Z,64.40
2022-12-31T15:44:46.146Z,64.60
2022-12-31T15:49:49.261Z,64.50
2022-12-31T15:54:55.483Z,64.40
2022-12-31T15:59:59.114Z,64.30
2022-12-31T16:05:01.981Z,64.30
2022-12-31T16:10:07.020Z,64.60
2022-12-31T16:15:19.904Z,64.30
2022-12-31T16:20:23.827Z,64.40
2022-12-31T16:25:31.190Z,64.50
2022-12-31T16:30:35.800Z,64.60
2022-12-31T16:35:38.526Z,64.50
2022-12-31T16:40:43.677Z,64.60
2022-12-31T16:45:46.332Z,64.40
2022-12-31T16:50:50.361Z,64.60
2022-12-31T16:55:56.598Z,64.70
2022-12-31T17:01:04.709Z,64.40
2022-12-31T17:06:13.983Z,64.70
2022-12-31T17:11:24.017Z,64.50
2022-12-31T17:16:27.076Z,64.50
2022-12-31T17:21:30.947Z,64.60
2022-12-31T17:26:37.019Z,64.60
2022-12-31T17:31:40.876Z,64.60
2022-12-31T17:36:52.429Z,64.30
2022-12-31T17:41:58.704Z,64.50
2022-12-31T17:47:03.310Z,64.40
2022-12-31T17:52:07.393Z,64.40
2022-12-31T17:57:18.448Z,64.50
2022-12-31T18:02:21.360Z,64.60
2022-12-31T18:07:24.232Z,64.50
2022-12-31T18:12:28.352Z,64.50
2022-12-31T18:17:34.195Z,64.70
2022-12-31T18:22:36.934Z,64.70
2022-12-31T18:27:42.025Z,64.60
2022-12-31T18:32:45.250Z,64.80
2022-12-31T18:37:48.168Z,64.90
2022-12-31T18:42:52.327Z,64.90
2022-12-31T18:47:55.004Z,65.20
2022-12-31T18:52:57.627Z,65.10
2022-12-31T18:58:01.594Z,65.20
2022-12-31T19:03:05.521Z,65.20
2022-12-31T19:08:08.202Z,65.10
2022-12-31T19:13:12.788Z,65.40
2022-12-31T19:18:15.469Z,65.40
2022-12-31T19:23:20.367Z,65.30
2022-12-31T19:28:25.318Z,65.60
2022-12-31T19:33:27.998Z,65.50
2022-12-31T19:38:32.098Z,65.60
2022-12-31T19:43:36.156Z,65.50
2022-12-31T19:48:38.875Z,65.90
2022-12-31T19:53:41.573Z,65.80
2022-12-31T19:58:45.998Z,66.10
2022-12-31T20:03:49.118Z,65.70
2022-12-31T20:08:51.815Z,66.00
2022-12-31T20:13:55.838Z,65.90
2022-12-31T20:18:58.559Z,66.10
2022-12-31T20:24:01.231Z,66.10
2022-12-31T20:29:05.284Z,66.30
2022-12-31T20:34:07.925Z,66.40
2022-12-31T20:39:10.622Z,66.50
2022-12-31T20:44:14.659Z,66.60
2022-12-31T20:49:31.146Z,66.60
2022-12-31T20:54:40.152Z,66.60
2022-12-31T20:59:44.172Z,66.50
2022-12-31T21:04:46.976Z,66.80
2022-12-31T21:09:49.838Z,66.90
2022-12-31T21:14:53.832Z,66.90
2022-12-31T21:19:56.476Z,66.80
2022-12-31T21:25:01.022Z,67.00
2022-12-31T21:30:21.127Z,67.00
2022-12-31T21:40:46.537Z,67.40
2022-12-31T21:46:00.455Z,67.20
2022-12-31T21:51:07.583Z,67.20
2022-12-31T21:56:11.509Z,67.30
2022-12-31T22:01:37.034Z,67.50
2022-12-31T22:06:39.746Z,67.40
2022-12-31T22:11:42.467Z,67.40
2022-12-31T22:16:46.482Z,67.50
2022-12-31T22:21:49.151Z,67.10
2022-12-31T22:26:53.781Z,67.40
2022-12-31T22:32:01.253Z,67.50
2022-12-31T22:37:20.358Z,67.70
2022-12-31T22:42:26.819Z,67.60
2022-12-31T22:47:30.872Z,67.60
2022-12-31T22:52:33.507Z,67.40
2022-12-31T22:57:36.209Z,67.50
2022-12-31T23:02:42.313Z,67.60
2022-12-31T23:07:45.196Z,67.50
2022-12-31T23:12:47.817Z,67.80
2022-12-31T23:18:09.088Z,67.60
2022-12-31T23:23:14.618Z,67.40
2022-12-31T23:28:18.508Z,67.70
2022-12-31T23:33:23.591Z,67.60
2022-12-31T23:38:26.272Z,67.70
2022-12-31T23:43:28.921Z,67.80
2022-12-31T23:48:32.964Z,67.80
2022-12-31T23:53:35.662Z,67.80
2022-12-31T23:58:38.297Z,67.70
